Hovedside
METAR-TAF:

METAR-TAF

Lufthavner :

Kolding, Danmark

Vamdrup

breddegrad: 55-26N, lengdegrad: 009-20E, høyde over havet: 44 m

Gjeldene værobservasjon

Denne rapporten ble laget for 42 minutter siden, klokken 13:50 UTC
Vind 20 kt fra Sørvest
Temperatur 11°C
Luftfuktighet 94%
Trykk 998 hPa
Sikt: 3500 m
Brutte skyer i en høyde av 500 ft
dis

METAR: EKVD 221350Z 23020KT 3500 BR BKN005 11/10 Q0998

Tid: 15:32 (14:32 UTC)

Varsel

Denne rapporten ble laget for 2 timer og 40 minutter siden, klokken 11:52 UTC
Varsel gyldig fra 22. klokken 12 UTC til 22. klokken 17 UTC
Vind 15 kt fra Sørvest
Sikt: 7000 m
Brutte skyer i en høyde av 800 ft
Midlertidig
fra 22. klokken 12 UTC til 22. klokken 15 UTC
Sikt: 2000 m
Brutte skyer i en høyde av 300 ft
regn, duskregn, dis
Midlertidig
fra 22. klokken 15 UTC til 22. klokken 17 UTC
Sikt: 4000 m
Brutte skyer i en høyde av 1000 ft
regn, duskregn

TAF: EKVD 221152Z 2212/2217 23015KT 7000 BKN008 TEMPO 2212/2215 2000 RADZ BR BKN003 TEMPO 2215/2217 4000 RADZ BKN010

Værobservasjoner og værvarsel for over 4000 flyplasser (METAR- og TAF-rapporter).

Tilgjengelige stasjoner er representert av de røde og gule prikkene på kartet.

Hold musepekeren over prikken for å se navnet på stasjonen.

Klikk så for å se værobservasjoner og -varsler.

For å forandre kartet kan du klikke på den grønne knappen med svart kryss for å zoome inn, på den grønne knappen med strek for å zoome ut, eller på de grønne pilene for å se tilstøtende kart.


METAR-TAF: